createdAt,value
2017-04-20T00:00:52.051Z,73.30
2017-04-20T00:01:51.299Z,73.90
2017-04-20T00:02:50.520Z,74.10
2017-04-20T00:03:49.810Z,73.30
2017-04-20T00:04:49.043Z,72.60
2017-04-20T00:05:48.288Z,72.40
2017-04-20T00:06:47.520Z,73.60
2017-04-20T00:07:46.737Z,73.70
2017-04-20T00:08:46.257Z,73.60
2017-04-20T00:09:44.722Z,73.60
2017-04-20T00:10:43.927Z,73.80
2017-04-20T00:11:43.164Z,73.30
2017-04-20T00:12:42.386Z,73.70
2017-04-20T00:13:41.597Z,74.70
2017-04-20T00:14:40.847Z,74.50
2017-04-20T00:15:40.089Z,74.30
2017-04-20T00:16:39.305Z,74.20
2017-04-20T00:17:38.532Z,73.70
2017-04-20T00:18:37.745Z,73.50
2017-04-20T00:19:36.992Z,73.90
2017-04-20T00:20:36.216Z,74.40
2017-04-20T00:21:35.451Z,74.30
2017-04-20T00:22:34.675Z,73.60
2017-04-20T00:23:33.885Z,73.60
2017-04-20T00:24:33.128Z,73.60
2017-04-20T00:25:32.468Z,73.40
2017-04-20T00:26:31.676Z,73.90
2017-04-20T00:27:31.016Z,73.50
2017-04-20T00:28:30.326Z,73.30
2017-04-20T00:29:29.639Z,73.60
2017-04-20T00:30:28.849Z,74.40
2017-04-20T00:31:28.056Z,74.80
2017-04-20T00:32:27.288Z,73.80
2017-04-20T00:33:26.508Z,74.10
2017-04-20T00:34:25.767Z,73.60
2017-04-20T00:35:25.033Z,74.30
2017-04-20T00:36:24.292Z,75.00
2017-04-20T00:37:23.520Z,75.50
2017-04-20T00:38:22.761Z,74.80
2017-04-20T00:39:21.972Z,75.60
2017-04-20T00:40:21.260Z,75.50
2017-04-20T00:41:20.477Z,75.60
2017-04-20T00:42:19.988Z,75.10
2017-04-20T00:43:19.291Z,75.50
2017-04-20T00:44:18.576Z,75.30
2017-04-20T00:45:17.873Z,75.60
2017-04-20T00:46:17.124Z,75.10
2017-04-20T00:47:16.405Z,75.80
2017-04-20T00:48:15.615Z,75.70
2017-04-20T00:49:14.831Z,75.50
2017-04-20T00:50:14.072Z,75.20
2017-04-20T00:51:13.292Z,74.90
2017-04-20T00:52:12.512Z,75.50
2017-04-20T00:53:11.723Z,75.60
2017-04-20T00:54:10.955Z,76.30
2017-04-20T00:55:10.199Z,76.30
2017-04-20T00:56:09.427Z,76.80
2017-04-20T00:57:08.735Z,76.90
2017-04-20T00:58:08.012Z,76.70
2017-04-20T00:59:07.261Z,77.20
2017-04-20T01:00:06.845Z,77.40
2017-04-20T01:01:06.079Z,77.60
2017-04-20T01:02:05.332Z,77.40
2017-04-20T01:03:11.236Z,76.90
2017-04-20T01:04:10.435Z,78.00
2017-04-20T01:05:09.931Z,78.40
2017-04-20T01:06:09.179Z,78.10
2017-04-20T01:07:08.411Z,77.40
2017-04-20T01:08:10.351Z,77.20
2017-04-20T01:09:10.080Z,77.00
2017-04-20T01:10:09.905Z,77.00
2017-04-20T01:11:09.695Z,77.30
2017-04-20T01:12:09.280Z,77.30
2017-04-20T01:13:08.903Z,77.70
2017-04-20T01:14:08.115Z,77.50
2017-04-20T01:15:07.359Z,77.70
2017-04-20T01:16:06.607Z,77.20
2017-04-20T01:17:08.667Z,77.10
2017-04-20T01:18:08.490Z,76.30
2017-04-20T01:19:07.776Z,76.90
2017-04-20T01:20:07.069Z,77.30
2017-04-20T01:21:06.324Z,77.90
2017-04-20T01:22:06.241Z,78.00
2017-04-20T01:23:05.482Z,77.90
2017-04-20T01:24:05.280Z,77.40
2017-04-20T01:25:04.508Z,77.20
2017-04-20T01:26:04.478Z,77.20
2017-04-20T01:27:04.906Z,78.00
2017-04-20T01:28:04.600Z,77.00
2017-04-20T01:29:03.813Z,77.60
2017-04-20T01:30:03.036Z,78.30
2017-04-20T01:31:02.275Z,79.20
2017-04-20T01:32:01.575Z,78.00
2017-04-20T01:33:00.776Z,78.40
2017-04-20T01:34:00.004Z,79.00
2017-04-20T01:34:59.240Z,79.40
2017-04-20T01:35:58.448Z,79.90
2017-04-20T01:36:57.687Z,79.90
2017-04-20T01:37:56.915Z,79.40
2017-04-20T01:38:56.132Z,80.00
2017-04-20T01:39:55.352Z,80.10
2017-04-20T01:40:54.584Z,80.70
2017-04-20T01:41:53.821Z,80.50
2017-04-20T01:42:53.032Z,80.20
2017-04-20T01:43:52.237Z,80.30
2017-04-20T01:44:51.444Z,80.30
2017-04-20T01:45:50.664Z,80.60
2017-04-20T01:46:49.898Z,81.30
2017-04-20T01:47:49.141Z,81.00
2017-04-20T01:48:48.365Z,80.90
2017-04-20T01:49:47.588Z,80.70
2017-04-20T01:50:46.824Z,80.20
2017-04-20T01:51:46.433Z,79.90
2017-04-20T01:52:45.703Z,79.60
2017-04-20T01:53:44.925Z,79.70
2017-04-20T01:54:44.141Z,80.00
2017-04-20T01:55:43.353Z,80.50
2017-04-20T01:56:42.570Z,80.60
2017-04-20T01:57:41.809Z,80.10
2017-04-20T01:58:41.036Z,80.60
2017-04-20T01:59:40.249Z,80.90
2017-04-20T02:00:39.460Z,81.30
2017-04-20T02:01:38.720Z,81.40
2017-04-20T02:02:37.967Z,81.50
2017-04-20T02:03:37.186Z,81.70
2017-04-20T02:04:36.445Z,81.90
2017-04-20T02:05:35.678Z,82.10
2017-04-20T02:06:34.892Z,81.90
2017-04-20T02:07:34.140Z,82.20
2017-04-20T02:08:33.359Z,82.40
2017-04-20T02:09:32.595Z,82.20
2017-04-20T02:10:31.048Z,82.20
2017-04-20T02:11:30.260Z,82.00
2017-04-20T02:12:29.868Z,82.10
2017-04-20T02:13:29.837Z,82.90
2017-04-20T02:14:29.036Z,82.70
2017-04-20T02:15:28.255Z,82.40
2017-04-20T02:16:27.465Z,82.60
2017-04-20T02:17:27.419Z,82.10
2017-04-20T02:18:26.685Z,81.40
2017-04-20T02:19:25.996Z,81.50
2017-04-20T02:20:25.207Z,81.90
2017-04-20T02:21:24.441Z,81.50
2017-04-20T02:22:24.417Z,81.30
2017-04-20T02:23:23.664Z,81.40
2017-04-20T02:24:22.889Z,81.60
2017-04-20T02:25:22.110Z,81.50
2017-04-20T02:26:21.408Z,81.60
2017-04-20T02:27:20.629Z,81.90
2017-04-20T02:28:19.867Z,81.50
2017-04-20T02:29:19.165Z,81.40
2017-04-20T02:30:18.380Z,81.90
2017-04-20T02:31:17.623Z,82.10
2017-04-20T02:32:16.863Z,82.10
2017-04-20T02:33:16.427Z,82.20
2017-04-20T02:34:15.649Z,82.20
2017-04-20T02:35:14.852Z,82.20
2017-04-20T02:36:14.064Z,82.60
2017-04-20T02:37:13.281Z,82.50
2017-04-20T02:38:12.511Z,82.20
2017-04-20T02:39:11.754Z,82.10
2017-04-20T02:40:10.973Z,82.00
2017-04-20T02:41:10.175Z,82.50
2017-04-20T02:42:09.411Z,82.30
2017-04-20T02:43:08.721Z,82.20
2017-04-20T02:44:08.033Z,82.20
2017-04-20T02:45:07.296Z,82.00
2017-04-20T02:46:06.558Z,81.70
2017-04-20T02:47:05.772Z,81.80
2017-04-20T02:48:05.060Z,81.80
2017-04-20T02:49:04.299Z,81.90
2017-04-20T02:50:03.511Z,82.90
2017-04-20T02:51:02.788Z,82.30
2017-04-20T02:52:02.021Z,83.00
2017-04-20T02:53:01.231Z,82.20
2017-04-20T02:54:00.475Z,82.50
2017-04-20T02:54:59.692Z,82.80
2017-04-20T02:55:58.151Z,82.80
2017-04-20T02:56:57.372Z,83.30
2017-04-20T02:57:56.608Z,82.90
2017-04-20T02:58:56.587Z,82.90
2017-04-20T02:59:55.809Z,83.10
2017-04-20T03:00:55.088Z,84.10
2017-04-20T03:01:54.324Z,83.60
2017-04-20T03:02:53.539Z,83.20
2017-04-20T03:03:53.579Z,83.50
2017-04-20T03:04:52.816Z,83.50
2017-04-20T03:05:52.032Z,83.40
2017-04-20T03:06:51.268Z,83.70
2017-04-20T03:07:50.507Z,83.70
2017-04-20T03:08:49.739Z,84.20
2017-04-20T03:09:49.023Z,84.20
2017-04-20T03:10:48.240Z,84.10
2017-04-20T03:11:47.460Z,84.00
2017-04-20T03:12:46.689Z,83.90
2017-04-20T03:13:45.936Z,84.30
2017-04-20T03:14:45.266Z,84.10
2017-04-20T03:15:44.472Z,84.10
2017-04-20T03:16:43.704Z,83.80
2017-04-20T03:17:42.943Z,83.60
2017-04-20T03:18:42.168Z,83.60
2017-04-20T03:19:41.412Z,83.40
2017-04-20T03:20:40.629Z,83.50
2017-04-20T03:21:39.848Z,83.10
2017-04-20T03:22:39.076Z,82.90
2017-04-20T03:23:38.289Z,83.30
2017-04-20T03:24:37.532Z,83.50
2017-04-20T03:25:36.754Z,83.40
2017-04-20T03:26:35.972Z,82.90
2017-04-20T03:27:35.185Z,83.50
2017-04-20T03:28:34.416Z,83.50
2017-04-20T03:29:34.352Z,83.70
2017-04-20T03:30:33.929Z,83.70
2017-04-20T03:31:33.180Z,83.70
2017-04-20T03:32:32.443Z,83.60
2017-04-20T03:33:31.672Z,83.50
2017-04-20T03:34:31.096Z,83.70
2017-04-20T03:35:30.652Z,83.10
2017-04-20T03:36:30.065Z,83.50
2017-04-20T03:37:29.779Z,82.80
2017-04-20T03:38:29.412Z,82.70
2017-04-20T03:39:28.708Z,83.90
2017-04-20T03:40:28.133Z,83.40
2017-04-20T03:41:27.500Z,82.90
2017-04-20T03:42:26.748Z,82.10
2017-04-20T03:43:25.979Z,82.20
2017-04-20T03:44:25.587Z,82.10
2017-04-20T03:45:25.375Z,81.80
2017-04-20T03:46:24.766Z,81.80
2017-04-20T03:47:24.121Z,81.30
2017-04-20T03:48:23.379Z,81.10
2017-04-20T03:49:22.846Z,80.90
2017-04-20T03:50:22.088Z,81.00
2017-04-20T03:51:21.751Z,81.90
2017-04-20T03:52:21.027Z,81.50
2017-04-20T03:53:20.370Z,81.00
2017-04-20T03:54:19.619Z,81.10
2017-04-20T03:55:18.636Z,81.00
2017-04-20T03:56:17.926Z,81.60
2017-04-20T03:57:17.249Z,80.80
2017-04-20T03:58:16.760Z,80.60
2017-04-20T03:59:15.973Z,80.70
2017-04-20T04:00:15.237Z,80.60
2017-04-20T04:01:14.477Z,80.30
2017-04-20T04:02:13.701Z,80.30
2017-04-20T04:03:12.905Z,79.90
2017-04-20T04:04:12.130Z,79.60
2017-04-20T04:05:11.387Z,79.50
2017-04-20T04:06:10.591Z,79.30
2017-04-20T04:07:09.820Z,79.00
2017-04-20T04:08:09.088Z,79.30
2017-04-20T04:09:08.321Z,79.90
2017-04-20T04:10:07.600Z,79.90
2017-04-20T04:11:06.820Z,80.20
2017-04-20T04:12:06.039Z,80.30
2017-04-20T04:13:05.248Z,80.20
2017-04-20T04:14:04.484Z,80.50
2017-04-20T04:15:03.777Z,80.80
2017-04-20T04:16:03.003Z,80.60
2017-04-20T04:17:02.281Z,81.00
2017-04-20T04:18:01.581Z,80.60
2017-04-20T04:19:00.814Z,80.20
2017-04-20T04:20:00.492Z,80.60
2017-04-20T04:20:59.716Z,80.90
2017-04-20T04:21:58.173Z,81.00
2017-04-20T04:22:57.392Z,80.00
2017-04-20T04:23:55.845Z,80.00
2017-04-20T04:24:55.068Z,80.40
2017-04-20T04:25:54.312Z,80.80
2017-04-20T04:26:53.553Z,80.90
2017-04-20T04:27:52.788Z,81.00
2017-04-20T04:28:52.004Z,81.80
2017-04-20T04:29:51.215Z,80.70
2017-04-20T04:30:50.458Z,80.20
2017-04-20T04:31:49.672Z,80.60
2017-04-20T04:32:48.884Z,80.30
2017-04-20T04:33:48.184Z,80.10
2017-04-20T04:34:47.408Z,79.60
2017-04-20T04:35:46.660Z,79.30
2017-04-20T04:36:45.889Z,79.20
2017-04-20T04:37:45.096Z,78.90
2017-04-20T04:38:44.326Z,79.00
2017-04-20T04:39:43.603Z,79.40
2017-04-20T04:40:42.844Z,79.80
2017-04-20T04:41:42.061Z,80.40
2017-04-20T04:42:41.265Z,80.50
2017-04-20T04:43:40.484Z,80.30
2017-04-20T04:44:39.735Z,79.60
2017-04-20T04:45:38.986Z,79.40
2017-04-20T04:46:38.196Z,79.60
2017-04-20T04:47:37.401Z,79.60
2017-04-20T04:48:36.639Z,79.30
2017-04-20T04:49:35.857Z,79.40
2017-04-20T04:50:35.119Z,79.70
2017-04-20T04:51:35.089Z,78.70
2017-04-20T04:52:34.356Z,78.70
2017-04-20T04:53:33.677Z,79.20
2017-04-20T04:54:32.905Z,79.60
2017-04-20T04:55:32.480Z,79.20
2017-04-20T04:56:31.705Z,79.40
2017-04-20T04:57:30.934Z,79.50
2017-04-20T04:58:30.156Z,79.40
2017-04-20T04:59:29.414Z,79.10
2017-04-20T05:00:27.860Z,79.20
2017-04-20T05:01:27.129Z,79.50
2017-04-20T05:02:26.349Z,79.00
2017-04-20T05:03:25.559Z,78.70
2017-04-20T05:04:24.787Z,77.40
2017-04-20T05:05:24.022Z,77.10
2017-04-20T05:06:23.264Z,76.50
2017-04-20T05:07:22.488Z,76.70
2017-04-20T05:08:21.708Z,76.70
2017-04-20T05:09:20.944Z,75.60
2017-04-20T05:10:20.148Z,75.80
2017-04-20T05:11:18.615Z,76.10
2017-04-20T05:12:17.828Z,75.60
2017-04-20T05:13:17.056Z,75.80
2017-04-20T05:14:16.273Z,75.50
2017-04-20T05:15:15.540Z,76.00
2017-04-20T05:16:15.685Z,75.50
2017-04-20T05:17:14.913Z,76.70
2017-04-20T05:18:14.128Z,77.10
2017-04-20T05:19:13.360Z,77.10
2017-04-20T05:20:12.555Z,78.20
2017-04-20T05:21:11.784Z,78.00
2017-04-20T05:22:11.003Z,77.90
2017-04-20T05:23:10.228Z,77.60
2017-04-20T05:24:09.508Z,77.70
2017-04-20T05:25:07.959Z,77.80
2017-04-20T05:26:07.184Z,78.70
2017-04-20T05:27:06.435Z,77.40
2017-04-20T05:28:05.662Z,77.30
2017-04-20T05:29:04.876Z,76.60
2017-04-20T05:30:03.391Z,76.70
2017-04-20T05:31:02.616Z,75.80
2017-04-20T05:32:01.888Z,76.20
2017-04-20T05:33:01.106Z,75.90
2017-04-20T05:34:00.320Z,75.40
2017-04-20T05:34:59.536Z,75.10
2017-04-20T05:35:58.746Z,74.80
2017-04-20T05:36:57.988Z,74.00
2017-04-20T05:37:57.447Z,73.90
2017-04-20T05:38:56.713Z,73.50
2017-04-20T05:39:55.932Z,73.80
2017-04-20T05:40:55.196Z,72.80
2017-04-20T05:41:54.428Z,72.90
2017-04-20T05:42:53.641Z,72.30
2017-04-20T05:43:52.872Z,73.50
2017-04-20T05:44:52.125Z,73.30
2017-04-20T05:45:51.345Z,73.00
2017-04-20T05:46:50.961Z,73.00
2017-04-20T05:47:50.176Z,72.10
2017-04-20T05:48:49.444Z,72.60
2017-04-20T05:49:47.900Z,72.60
2017-04-20T05:50:47.126Z,71.20
2017-04-20T05:51:46.372Z,73.00
2017-04-20T05:52:45.753Z,73.20
2017-04-20T05:53:45.828Z,71.90
2017-04-20T05:54:45.023Z,71.80
2017-04-20T05:55:44.237Z,71.90
2017-04-20T05:56:43.519Z,72.50
2017-04-20T05:57:42.872Z,71.60
2017-04-20T05:58:42.072Z,70.80
2017-04-20T05:59:41.372Z,70.40
2017-04-20T06:00:40.596Z,68.70
2017-04-20T06:01:40.011Z,68.50
2017-04-20T06:02:39.264Z,68.40
2017-04-20T06:03:38.497Z,68.10
2017-04-20T06:04:37.741Z,67.60
2017-04-20T06:05:37.023Z,67.50
2017-04-20T06:06:36.261Z,68.50
2017-04-20T06:07:35.512Z,69.10
2017-04-20T06:08:33.980Z,69.10
2017-04-20T06:09:33.217Z,66.20
2017-04-20T06:10:32.532Z,66.80
2017-04-20T06:11:31.807Z,66.30
2017-04-20T06:12:31.239Z,66.60
2017-04-20T06:13:30.468Z,67.60
2017-04-20T06:14:29.780Z,65.70
2017-04-20T06:15:29.008Z,64.80
2017-04-20T06:16:28.280Z,63.30
2017-04-20T06:17:27.926Z,62.10
2017-04-20T06:18:27.306Z,63.30
2017-04-20T06:19:27.328Z,64.00
2017-04-20T06:20:26.560Z,64.10
2017-04-20T06:21:25.772Z,64.60
2017-04-20T06:22:25.520Z,63.70
2017-04-20T06:23:24.773Z,62.50
2017-04-20T06:24:24.189Z,64.00
2017-04-20T06:25:23.403Z,62.40
2017-04-20T06:26:22.615Z,61.50
2017-04-20T06:27:21.999Z,60.60
2017-04-20T06:28:20.516Z,60.60
2017-04-20T06:29:19.032Z,59.30
2017-04-20T06:30:18.259Z,54.30
2017-04-20T06:31:17.460Z,52.40
2017-04-20T06:32:16.688Z,51.20
2017-04-20T06:33:15.988Z,51.10
2017-04-20T06:34:15.217Z,45.90
2017-04-20T06:35:14.428Z,45.30
2017-04-20T06:36:13.685Z,44.60
2017-04-20T06:37:12.929Z,42.90
2017-04-20T06:38:12.906Z,41.70
2017-04-20T06:39:12.244Z,40.80
2017-04-20T06:40:11.456Z,40.90
2017-04-20T06:41:10.673Z,39.10
2017-04-20T06:42:09.871Z,38.90
2017-04-20T06:43:09.728Z,40.00
2017-04-20T06:44:08.953Z,40.90
2017-04-20T06:45:08.224Z,39.60
2017-04-20T06:46:07.458Z,38.90
2017-04-20T06:47:06.688Z,39.50
2017-04-20T06:48:06.821Z,41.90
2017-04-20T06:49:06.148Z,39.80
2017-04-20T06:50:04.670Z,39.80
2017-04-20T06:51:03.909Z,38.50
2017-04-20T06:52:03.127Z,38.30
2017-04-20T06:53:02.349Z,38.60
2017-04-20T06:54:01.676Z,39.10
2017-04-20T06:55:00.897Z,37.30
2017-04-20T06:56:00.120Z,37.60
2017-04-20T06:56:59.414Z,38.10
2017-04-20T06:57:58.632Z,38.10
2017-04-20T06:58:57.873Z,36.90
2017-04-20T06:59:57.551Z,37.50
2017-04-20T07:00:56.876Z,35.70
2017-04-20T07:01:56.178Z,35.20
2017-04-20T07:02:58.199Z,34.60
2017-04-20T07:03:57.452Z,34.60
2017-04-20T07:04:56.736Z,33.40
2017-04-20T07:05:56.364Z,34.00
2017-04-20T07:06:55.683Z,33.40
2017-04-20T07:07:54.988Z,32.90
2017-04-20T07:08:54.385Z,32.80
2017-04-20T07:09:53.645Z,33.90
2017-04-20T07:10:52.984Z,32.50
2017-04-20T07:11:52.205Z,33.00
2017-04-20T07:12:52.012Z,31.70
2017-04-20T07:13:51.616Z,31.80
2017-04-20T07:14:50.856Z,31.30
2017-04-20T07:15:50.072Z,32.70
2017-04-20T07:16:49.444Z,34.40
2017-04-20T07:17:48.700Z,34.60
2017-04-20T07:18:47.221Z,34.60
2017-04-20T07:19:46.544Z,32.10
2017-04-20T07:20:46.411Z,32.50
2017-04-20T07:21:45.800Z,32.90
2017-04-20T07:22:44.313Z,32.90
2017-04-20T07:23:43.544Z,32.70
2017-04-20T07:24:42.782Z,32.50
2017-04-20T07:25:42.395Z,33.30
2017-04-20T07:26:41.632Z,34.70
2017-04-20T07:27:40.924Z,34.90
2017-04-20T07:28:39.384Z,34.80
2017-04-20T07:29:38.625Z,33.40
2017-04-20T07:30:38.056Z,33.30
2017-04-20T07:31:37.324Z,33.60
2017-04-20T07:32:36.556Z,32.60
2017-04-20T07:33:35.800Z,31.70
2017-04-20T07:34:35.067Z,30.40
2017-04-20T07:35:34.309Z,31.20
2017-04-20T07:36:34.325Z,30.90
2017-04-20T07:37:33.565Z,31.30
2017-04-20T07:38:32.780Z,32.10
2017-04-20T07:39:31.909Z,32.00
2017-04-20T07:40:31.137Z,32.20
2017-04-20T07:41:30.369Z,31.40
2017-04-20T07:42:29.620Z,30.00
2017-04-20T07:43:28.850Z,30.60
2017-04-20T07:44:28.080Z,29.80
2017-04-20T07:45:28.271Z,28.60
2017-04-20T07:46:27.531Z,28.90
2017-04-20T07:47:26.769Z,29.30
2017-04-20T07:48:26.041Z,30.50
2017-04-20T07:49:25.308Z,29.50
2017-04-20T07:50:24.577Z,28.30
2017-04-20T07:51:23.821Z,27.60
2017-04-20T07:52:23.028Z,28.40
2017-04-20T07:53:22.264Z,27.90
2017-04-20T07:54:21.477Z,26.90
2017-04-20T07:55:21.069Z,28.20
2017-04-20T07:56:20.297Z,30.30
2017-04-20T07:57:19.531Z,30.20
2017-04-20T07:58:18.760Z,28.90
2017-04-20T07:59:17.986Z,28.20
2017-04-20T08:00:17.227Z,27.50
2017-04-20T08:01:16.484Z,27.50
2017-04-20T08:02:15.731Z,27.30
2017-04-20T08:03:14.236Z,27.30
2017-04-20T08:04:13.676Z,26.50
2017-04-20T08:05:12.955Z,27.30
2017-04-20T08:06:12.223Z,27.10
2017-04-20T08:07:11.445Z,26.60
2017-04-20T08:08:10.891Z,25.20
2017-04-20T08:09:10.492Z,25.10
2017-04-20T08:10:10.204Z,26.20
2017-04-20T08:11:09.503Z,27.30
2017-04-20T08:12:09.708Z,27.30
2017-04-20T08:13:08.540Z,27.30
2017-04-20T08:14:07.932Z,25.40
2017-04-20T08:15:06.456Z,25.40
2017-04-20T08:16:05.948Z,25.70
2017-04-20T08:17:05.307Z,25.50
2017-04-20T08:18:04.391Z,25.50
2017-04-20T08:19:03.834Z,25.10
2017-04-20T08:20:03.509Z,25.90
2017-04-20T08:21:03.376Z,25.90
2017-04-20T08:22:02.875Z,27.40
2017-04-20T08:23:01.537Z,27.30
2017-04-20T08:24:01.401Z,27.80
2017-04-20T08:25:00.868Z,28.40
2017-04-20T08:26:00.698Z,27.70
2017-04-20T08:27:00.509Z,28.00
2017-04-20T08:28:00.236Z,29.10
2017-04-20T08:28:59.776Z,26.60
2017-04-20T08:30:00.208Z,25.60
2017-04-20T08:31:00.093Z,26.90
2017-04-20T08:32:00.507Z,25.50
2017-04-20T08:33:00.189Z,26.00
2017-04-20T08:34:00.577Z,26.40
2017-04-20T08:34:59.564Z,26.50
2017-04-20T08:35:59.228Z,28.60
2017-04-20T08:36:58.990Z,32.70
2017-04-20T08:37:58.484Z,31.80
2017-04-20T08:38:58.653Z,29.80
2017-04-20T08:39:58.368Z,31.60
2017-04-20T08:40:57.706Z,30.90
2017-04-20T08:41:57.424Z,28.80
2017-04-20T08:42:56.652Z,28.70
2017-04-20T08:43:56.092Z,28.10
2017-04-20T08:44:55.884Z,26.90
2017-04-20T08:45:58.760Z,26.40
2017-04-20T08:46:59.078Z,25.90
2017-04-20T08:47:58.772Z,26.70
2017-04-20T08:48:58.121Z,25.00
2017-04-20T08:49:57.585Z,24.10
2017-04-20T08:50:57.145Z,25.80
2017-04-20T08:51:56.627Z,25.30
2017-04-20T08:52:55.365Z,25.40
2017-04-20T08:53:54.937Z,26.70
2017-04-20T08:54:54.369Z,27.10
2017-04-20T08:55:53.763Z,26.20
2017-04-20T08:56:53.420Z,25.60
2017-04-20T08:57:52.826Z,26.90
2017-04-20T08:58:52.248Z,27.90
2017-04-20T08:59:52.060Z,28.50
2017-04-20T09:00:51.511Z,28.30
2017-04-20T09:01:51.225Z,28.90
2017-04-20T09:02:50.459Z,31.40
2017-04-20T09:03:49.827Z,32.20
2017-04-20T09:04:49.048Z,32.10
2017-04-20T09:05:48.322Z,32.00
2017-04-20T09:06:47.632Z,32.20
2017-04-20T09:07:46.887Z,32.70
2017-04-20T09:08:46.115Z,33.60
2017-04-20T09:09:45.396Z,33.60
2017-04-20T09:10:45.271Z,33.50
2017-04-20T09:11:44.651Z,32.00
2017-04-20T09:12:43.282Z,32.00
2017-04-20T09:13:42.941Z,34.70
2017-04-20T09:14:42.202Z,33.70
2017-04-20T09:15:41.459Z,33.80
2017-04-20T09:16:40.821Z,34.50
2017-04-20T09:17:40.345Z,31.30
2017-04-20T09:18:39.581Z,31.30
2017-04-20T09:19:38.068Z,31.20
2017-04-20T09:20:37.175Z,31.00
2017-04-20T09:21:36.771Z,29.00
2017-04-20T09:22:36.417Z,28.30
2017-04-20T09:23:36.013Z,28.90
2017-04-20T09:24:35.935Z,29.40
2017-04-20T09:25:35.293Z,28.80
2017-04-20T09:26:34.540Z,28.00
2017-04-20T09:27:34.829Z,29.00
2017-04-20T09:28:34.092Z,27.80
2017-04-20T09:29:32.580Z,27.80
2017-04-20T09:30:33.177Z,27.60
2017-04-20T09:31:32.623Z,26.30
2017-04-20T09:32:31.709Z,26.30
2017-04-20T09:33:32.793Z,27.40
2017-04-20T09:34:31.533Z,27.30
2017-04-20T09:35:30.776Z,25.40
2017-04-20T09:36:30.513Z,24.50
2017-04-20T09:37:30.409Z,24.10
2017-04-20T09:38:30.225Z,25.30
2017-04-20T09:39:29.956Z,26.50
2017-04-20T09:40:29.622Z,25.90
2017-04-20T09:41:29.485Z,26.10
2017-04-20T09:42:29.329Z,25.40
2017-04-20T09:43:29.038Z,25.90
2017-04-20T09:44:28.938Z,26.40
2017-04-20T09:45:28.688Z,27.60
2017-04-20T09:46:28.525Z,27.00
2017-04-20T09:47:28.185Z,26.30
2017-04-20T09:48:27.513Z,27.30
2017-04-20T09:49:26.907Z,27.30
2017-04-20T09:50:25.505Z,27.20
2017-04-20T09:51:24.773Z,25.90
2017-04-20T09:52:24.380Z,26.50
2017-04-20T09:53:23.488Z,26.40
2017-04-20T09:54:22.952Z,26.70
2017-04-20T09:55:22.432Z,27.20
2017-04-20T09:56:21.851Z,26.80
2017-04-20T09:57:21.167Z,26.40
2017-04-20T09:58:20.452Z,25.80
2017-04-20T09:59:19.789Z,26.40
2017-04-20T10:00:19.172Z,26.30
2017-04-20T10:01:18.955Z,26.80
2017-04-20T10:02:18.344Z,27.40
2017-04-20T10:03:17.968Z,26.90
2017-04-20T10:04:17.599Z,28.60
2017-04-20T10:05:17.043Z,29.10
2017-04-20T10:06:16.863Z,28.70
2017-04-20T10:07:16.600Z,29.50
2017-04-20T10:08:16.366Z,30.00
2017-04-20T10:09:15.673Z,29.50
2017-04-20T10:10:15.073Z,30.80
2017-04-20T10:11:14.301Z,29.10
2017-04-20T10:12:14.000Z,29.00
2017-04-20T10:13:13.260Z,28.80
2017-04-20T10:14:12.534Z,28.10
2017-04-20T10:15:11.863Z,28.20
2017-04-20T10:16:11.716Z,29.20
2017-04-20T10:17:11.461Z,29.10
2017-04-20T10:18:10.723Z,28.70
2017-04-20T10:19:10.648Z,29.00
2017-04-20T10:20:10.013Z,29.60
2017-04-20T10:21:09.478Z,29.40
2017-04-20T10:22:09.513Z,29.80
2017-04-20T10:23:08.786Z,29.30
2017-04-20T10:24:08.045Z,30.10
2017-04-20T10:25:07.344Z,28.10
2017-04-20T10:26:06.613Z,29.20
2017-04-20T10:27:05.855Z,29.70
2017-04-20T10:28:05.858Z,29.00
2017-04-20T10:29:05.724Z,30.90
2017-04-20T10:30:05.264Z,29.20
2017-04-20T10:31:05.195Z,30.10
2017-04-20T10:32:04.408Z,27.90
2017-04-20T10:33:04.086Z,28.00
2017-04-20T10:34:03.935Z,27.60
2017-04-20T10:35:03.779Z,26.80
2017-04-20T10:36:03.594Z,26.50
2017-04-20T10:37:03.199Z,26.50
2017-04-20T10:38:02.993Z,25.90
2017-04-20T10:39:01.703Z,25.70
2017-04-20T10:40:01.649Z,25.90
2017-04-20T10:41:01.111Z,25.60
2017-04-20T10:42:00.497Z,23.20
2017-04-20T10:42:59.793Z,22.50
2017-04-20T10:43:59.608Z,23.40
2017-04-20T10:44:58.943Z,25.10
2017-04-20T10:45:59.380Z,25.70
2017-04-20T10:46:59.192Z,25.80
2017-04-20T10:47:59.091Z,26.50
2017-04-20T10:48:58.948Z,25.70
2017-04-20T10:50:02.684Z,26.60
2017-04-20T10:51:02.048Z,27.20
2017-04-20T10:52:03.924Z,28.00
2017-04-20T10:53:04.640Z,27.70
2017-04-20T10:54:03.872Z,27.80
2017-04-20T10:55:03.457Z,28.20
2017-04-20T10:56:02.869Z,28.40
2017-04-20T10:57:01.880Z,28.30
2017-04-20T10:58:02.012Z,27.90
2017-04-20T10:59:01.296Z,26.60
2017-04-20T11:00:01.656Z,29.00
2017-04-20T11:01:01.585Z,28.70
2017-04-20T11:02:00.738Z,28.70
2017-04-20T11:03:00.652Z,28.60
2017-04-20T11:04:01.227Z,29.50
2017-04-20T11:05:01.240Z,29.80
2017-04-20T11:06:01.315Z,29.80
2017-04-20T11:07:01.321Z,27.80
2017-04-20T11:08:01.350Z,26.00
2017-04-20T11:09:01.440Z,25.80
2017-04-20T11:10:01.370Z,24.70
2017-04-20T11:11:00.780Z,26.00
2017-04-20T11:12:01.700Z,26.80
2017-04-20T11:13:01.724Z,27.60
2017-04-20T11:14:02.413Z,27.50
2017-04-20T11:15:02.579Z,26.90
2017-04-20T11:16:02.693Z,25.20
2017-04-20T11:17:02.267Z,25.50
2017-04-20T11:18:01.860Z,25.30
2017-04-20T11:19:01.192Z,25.10
2017-04-20T11:20:01.178Z,23.00
2017-04-20T11:21:01.129Z,21.70
2017-04-20T11:22:01.009Z,23.10
2017-04-20T11:23:00.249Z,20.80
2017-04-20T11:23:59.564Z,20.90
2017-04-20T11:24:58.858Z,21.00
2017-04-20T11:25:58.649Z,23.00
2017-04-20T11:26:59.069Z,25.20
2017-04-20T11:27:58.571Z,24.80
2017-04-20T11:28:58.129Z,23.70
2017-04-20T11:29:57.675Z,22.60
2017-04-20T11:30:57.298Z,25.20
2017-04-20T11:31:56.847Z,26.90
2017-04-20T11:32:56.144Z,25.80
2017-04-20T11:33:55.376Z,25.20
2017-04-20T11:34:54.943Z,25.80
2017-04-20T11:35:55.201Z,25.70
2017-04-20T11:36:54.434Z,25.80
2017-04-20T11:37:53.169Z,25.60
2017-04-20T11:38:52.121Z,25.80
2017-04-20T11:39:51.386Z,27.00
2017-04-20T11:40:50.604Z,26.30
2017-04-20T11:41:49.836Z,26.80
2017-04-20T11:42:51.965Z,26.00
2017-04-20T11:43:53.957Z,25.30
2017-04-20T11:44:53.621Z,25.80
2017-04-20T11:45:52.864Z,24.20
2017-04-20T11:46:52.682Z,22.90
2017-04-20T11:47:51.904Z,22.70
2017-04-20T11:48:51.724Z,22.60
2017-04-20T11:49:53.623Z,24.20
2017-04-20T11:50:53.933Z,24.30
2017-04-20T11:51:53.693Z,24.70
2017-04-20T11:52:53.973Z,24.90
2017-04-20T11:53:54.440Z,26.00
2017-04-20T11:54:58.008Z,25.90
2017-04-20T11:55:57.784Z,27.60
2017-04-20T11:56:57.478Z,28.20
2017-04-20T11:57:56.704Z,28.40
2017-04-20T11:58:55.959Z,28.50
2017-04-20T11:59:55.203Z,28.80
2017-04-20T12:00:54.689Z,29.40
2017-04-20T12:01:54.212Z,29.10
2017-04-20T12:02:53.488Z,27.10
2017-04-20T12:03:53.048Z,28.40
2017-04-20T12:04:52.710Z,29.30
2017-04-20T12:05:52.516Z,28.40
2017-04-20T12:06:52.605Z,28.10
2017-04-20T12:07:52.277Z,25.30
2017-04-20T12:08:52.076Z,26.20
2017-04-20T12:09:51.712Z,26.80
2017-04-20T12:10:51.297Z,26.40
2017-04-20T12:11:50.788Z,25.80
2017-04-20T12:12:50.876Z,26.00
2017-04-20T12:13:50.244Z,26.00
2017-04-20T12:14:49.816Z,24.10
2017-04-20T12:15:49.933Z,23.30
2017-04-20T12:16:49.477Z,22.60
2017-04-20T12:17:49.068Z,24.10
2017-04-20T12:18:49.712Z,22.20
2017-04-20T12:19:49.509Z,23.70
2017-04-20T12:20:49.332Z,22.90
2017-04-20T12:21:49.192Z,22.60
2017-04-20T12:22:48.853Z,22.40
2017-04-20T12:23:49.365Z,20.30
2017-04-20T12:24:49.264Z,20.10
2017-04-20T12:25:48.552Z,23.50
2017-04-20T12:26:48.257Z,22.20
2017-04-20T12:27:47.526Z,23.40
2017-04-20T12:28:46.758Z,24.60
2017-04-20T12:29:46.083Z,24.20
2017-04-20T12:30:45.824Z,25.20
2017-04-20T12:31:45.590Z,26.20
2017-04-20T12:32:45.349Z,26.30
2017-04-20T12:33:45.001Z,27.40
2017-04-20T12:34:44.720Z,26.70
2017-04-20T12:35:44.747Z,25.00
2017-04-20T12:36:45.260Z,26.20
2017-04-20T12:37:43.748Z,26.30
2017-04-20T12:38:43.003Z,23.50
2017-04-20T12:39:42.745Z,24.40
2017-04-20T12:40:41.987Z,24.80
2017-04-20T12:41:41.283Z,22.50
2017-04-20T12:42:44.226Z,22.40
2017-04-20T12:43:47.170Z,22.90
2017-04-20T12:44:47.552Z,21.70
2017-04-20T12:45:46.944Z,22.40